Time;durP1;ratioP1;P1;durP2;ratioP2;P2;SDS_P1;SDS_P2;PMS_P1;PMS_P2;Temp;Humidity;BMP_temperature;BMP_pressure;BME280_temperature;BME280_humidity;BME280_pressure;Samples;Min_cycle;Max_cycle;Signal;HPM_P1;HPM_P2
2022/10/29 00:08:35;;;;;;;35.70;20.50;;;;;;;16.23;100.00;100574.38;639787;1313;140115;-82
2022/10/29 00:23:39;;;;;;;33.40;20.20;;;;;;;16.16;100.00;100584.17;639594;1310;140145;-83
2022/10/29 00:38:43;;;;;;;35.40;20.10;;;;;;;16.00;100.00;100581.09;638717;1305;140710;-83
2022/10/29 00:53:53;;;;;;;33.70;18.00;;;;;;;15.79;100.00;100588.58;638802;1313;140483;-82
2022/10/29 01:08:56;;;;;;;56.80;30.80;;;;;;;15.54;100.00;100578.52;639596;1308;139507;-82
2022/10/29 01:24:32;;;;;;;53.10;29.80;;;;;;;15.45;100.00;100542.33;639433;1313;140055;-82
2022/10/29 01:39:45;;;;;;;39.10;22.10;;;;;;;15.56;100.00;100531.19;639844;1305;139544;-82
2022/10/29 01:54:48;;;;;;;34.90;20.10;;;;;;;15.57;100.00;100505.73;639914;1312;139929;-82
2022/10/29 02:10:05;;;;;;;33.90;17.70;;;;;;;15.52;100.00;100504.14;639328;1312;139400;-81
2022/10/29 02:25:10;;;;;;;57.50;31.30;;;;;;;15.40;100.00;100489.47;638254;1307;983187;-82
2022/10/29 02:40:13;;;;;;;36.00;18.80;;;;;;;15.36;100.00;100476.48;639142;1291;140075;-82
2022/10/29 02:55:16;;;;;;;33.10;18.60;;;;;;;15.19;100.00;100480.02;638327;1284;140462;-82
2022/10/29 03:10:19;;;;;;;26.00;16.70;;;;;;;15.09;100.00;100473.89;638563;1298;139578;-82
2022/10/29 03:25:22;;;;;;;33.10;19.00;;;;;;;15.06;100.00;100480.56;637583;1307;141206;-82
2022/10/29 03:40:26;;;;;;;34.30;17.90;;;;;;;15.08;100.00;100476.63;637922;1300;141260;-83
2022/10/29 03:55:30;;;;;;;25.50;16.60;;;;;;;15.09;100.00;100475.65;637774;1306;139969;-82
2022/10/29 04:10:33;;;;;;;28.10;16.30;;;;;;;15.06;100.00;100486.73;639270;1313;141429;-82
2022/10/29 04:25:36;;;;;;;31.00;17.00;;;;;;;14.98;100.00;100473.73;639431;1301;139539;-82
2022/10/29 04:41:00;;;;;;;30.80;16.20;;;;;;;14.93;100.00;100468.98;640223;1310;139703;-82
2022/10/29 04:56:04;;;;;;;26.50;16.90;;;;;;;14.97;100.00;100476.69;639577;1307;140254;-82
2022/10/29 05:11:07;;;;;;;25.90;15.60;;;;;;;15.07;100.00;100474.03;639423;1306;139759;-82
2022/10/29 05:26:11;;;;;;;27.70;17.00;;;;;;;15.15;100.00;100493.38;639042;1300;139634;-82
2022/10/29 05:41:14;;;;;;;26.50;15.80;;;;;;;15.12;100.00;100499.63;638550;1289;139587;-83
2022/10/29 05:56:17;;;;;;;29.50;15.80;;;;;;;15.12;100.00;100483.81;639059;1291;141360;-82
2022/10/29 06:11:20;;;;;;;23.60;15.20;;;;;;;15.19;100.00;100489.42;640729;1294;139886;-82
2022/10/29 06:26:23;;;;;;;30.00;14.90;;;;;;;15.26;100.00;100494.86;639773;1292;139901;-82
2022/10/29 06:41:27;;;;;;;25.50;15.70;;;;;;;15.40;100.00;100490.06;639861;1305;140348;-83
2022/10/29 06:56:32;;;;;;;24.50;14.80;;;;;;;15.86;100.00;100490.84;644900;1303;140816;-84
2022/10/29 07:11:35;;;;;;;28.70;15.50;;;;;;;16.06;100.00;100526.28;640455;1298;139636;-81
2022/10/29 07:26:39;;;;;;;35.60;18.50;;;;;;;15.89;100.00;100558.40;639417;1300;139940;-84
2022/10/29 07:41:42;;;;;;;60.40;46.60;;;;;;;15.96;100.00;100546.92;640098;1297;141773;-82
2022/10/29 07:56:45;;;;;;;37.90;22.50;;;;;;;16.11;100.00;100539.31;642052;1288;140075;-81
2022/10/29 08:11:49;;;;;;;36.90;21.20;;;;;;;16.39;100.00;100535.83;642952;1288;141125;-82
2022/10/29 08:26:52;;;;;;;34.40;20.80;;;;;;;16.73;100.00;100535.47;639773;1298;139981;-82
2022/10/29 08:42:09;;;;;;;39.50;21.10;;;;;;;16.93;100.00;100550.56;639725;1300;139920;-83
2022/10/29 08:57:18;;;;;;;77.90;47.60;;;;;;;16.89;100.00;100562.36;639632;1298;139544;-83
2022/10/29 09:12:34;;;;;;;55.30;32.50;;;;;;;17.02;100.00;100584.97;639566;1298;139900;-83
2022/10/29 09:27:46;;;;;;;45.60;24.20;;;;;;;17.14;100.00;100599.84;639109;1298;139595;-83
2022/10/29 09:42:50;;;;;;;31.70;14.20;;;;;;;17.15;100.00;100612.42;640630;1307;139926;-84
2022/10/29 09:57:56;;;;;;;43.80;19.60;;;;;;;17.26;100.00;100615.03;639564;1300;139904;-83
2022/10/29 10:13:05;;;;;;;19.90;12.80;;;;;;;17.55;100.00;100612.77;639674;1307;139555;-84
2022/10/29 10:28:22;;;;;;;21.70;12.50;;;;;;;18.10;100.00;100606.65;639117;1313;140172;-82
2022/10/29 10:43:26;;;;;;;15.40;8.90;;;;;;;18.52;100.00;100613.25;638399;1313;139783;-83
2022/10/29 10:58:44;;;;;;;18.00;12.00;;;;;;;18.72;100.00;100621.43;639247;1313;139778;-84
2022/10/29 11:13:49;;;;;;;13.90;7.70;;;;;;;19.82;98.12;100619.52;638038;1313;139786;-87
2022/10/29 11:29:12;;;;;;;26.20;13.30;;;;;;;20.04;90.37;100621.99;638251;1299;139543;-84
2022/10/29 11:44:19;;;;;;;9.10;4.60;;;;;;;20.03;84.63;100622.50;641549;1313;139226;-85
2022/10/29 12:00:00;;;;;;;15.10;6.90;;;;;;;19.97;81.71;100624.12;639842;1298;139538;-85
2022/10/29 12:15:20;;;;;;;9.70;5.00;;;;;;;20.33;78.71;100625.34;638617;1300;138999;-83
2022/10/29 12:30:24;;;;;;;7.00;3.40;;;;;;;20.73;76.95;100624.08;639454;1313;138956;-85
2022/10/29 12:45:52;;;;;;;6.30;3.60;;;;;;;21.15;75.43;100613.85;639759;1313;138982;-84
2022/10/29 13:01:25;;;;;;;40.20;27.20;;;;;;;20.90;76.14;100615.23;640001;1308;138849;-84
2022/10/29 13:16:49;;;;;;;44.30;29.40;;;;;;;20.63;77.46;100623.09;639600;1305;139682;-84
2022/10/29 13:31:52;;;;;;;364.10;180.60;;;;;;;19.59;80.43;100639.45;639243;1313;139372;-86
2022/10/29 13:47:02;;;;;;;91.50;49.70;;;;;;;18.98;83.79;100633.98;639625;1290;141500;-86
2022/10/29 14:02:29;;;;;;;31.50;18.20;;;;;;;18.81;87.71;100635.61;644137;1297;140943;-86
2022/10/29 14:17:33;;;;;;;40.10;29.20;;;;;;;18.51;91.62;100634.38;639187;1294;1183418;-84
2022/10/29 14:32:39;;;;;;;54.20;32.00;;;;;;;18.16;94.60;100639.71;641105;1304;139625;-85
2022/10/29 14:47:49;;;;;;;76.30;38.20;;;;;;;17.79;97.05;100658.78;641771;1296;140030;-84
2022/10/29 15:02:53;;;;;;;246.10;119.10;;;;;;;17.40;99.24;100653.34;642177;1305;139213;-83
2022/10/29 15:18:19;;;;;;;177.00;58.20;;;;;;;17.15;99.81;100655.95;648238;1305;139797;-83
2022/10/29 15:33:29;;;;;;;74.70;25.90;;;;;;;16.84;100.00;100664.60;639873;1305;140441;-84
2022/10/29 15:48:36;;;;;;;131.10;58.10;;;;;;;16.62;100.00;100666.42;640257;1310;140038;-84
2022/10/29 16:03:40;;;;;;;65.60;29.50;;;;;;;16.46;100.00;100666.15;639436;1310;140455;-85
2022/10/29 16:18:47;;;;;;;69.70;41.50;;;;;;;16.32;100.00;100679.11;639767;1308;139504;-84
2022/10/29 16:33:55;;;;;;;50.70;25.80;;;;;;;16.15;100.00;100681.98;641597;1310;140239;-83
2022/10/29 16:48:59;;;;;;;91.80;33.80;;;;;;;16.06;100.00;100695.77;639673;1302;139722;-83
2022/10/29 17:04:02;;;;;;;27.70;12.00;;;;;;;15.81;100.00;100702.64;640740;1312;140051;-82
2022/10/29 17:19:06;;;;;;;35.70;17.80;;;;;;;15.62;100.00;100697.98;640110;1299;139449;-85
2022/10/29 17:34:09;;;;;;;51.10;20.40;;;;;;;15.56;99.88;100692.27;640108;1309;139916;-82
2022/10/29 17:49:13;;;;;;;20.20;10.50;;;;;;;15.50;98.98;100688.34;639475;1313;140313;-83
2022/10/29 18:04:16;;;;;;;22.50;10.90;;;;;;;15.39;98.27;100704.80;639531;1304;139758;-83
2022/10/29 18:19:20;;;;;;;26.10;13.90;;;;;;;15.28;97.85;100712.38;640130;1304;140099;-83
2022/10/29 18:34:23;;;;;;;15.10;8.50;;;;;;;15.19;97.89;100722.15;639894;1313;140142;-83
2022/10/29 18:49:26;;;;;;;25.50;12.70;;;;;;;15.14;97.64;100737.61;640243;1304;139653;-83
2022/10/29 19:04:30;;;;;;;17.90;8.70;;;;;;;14.96;98.40;100742.93;639629;1294;139335;-83
2022/10/29 19:19:33;;;;;;;24.70;14.00;;;;;;;14.67;99.83;100725.83;645927;1305;140146;-84
2022/10/29 19:34:38;;;;;;;20.00;9.40;;;;;;;14.53;100.00;100718.36;640447;1313;139389;-82
2022/10/29 19:49:41;;;;;;;25.00;11.30;;;;;;;14.30;100.00;100724.33;643027;1302;139544;-83
2022/10/29 20:04:45;;;;;;;17.80;7.90;;;;;;;14.10;100.00;100708.09;640275;1305;139788;-83
2022/10/29 20:19:49;;;;;;;20.10;9.30;;;;;;;13.97;100.00;100707.72;640666;1313;139277;-83
2022/10/29 20:34:52;;;;;;;22.70;10.10;;;;;;;13.98;100.00;100715.39;639254;1305;139431;-84
2022/10/29 20:49:56;;;;;;;19.20;11.70;;;;;;;14.01;100.00;100711.27;639603;1313;139883;-83
2022/10/29 21:04:59;;;;;;;25.40;13.90;;;;;;;13.98;100.00;100713.94;639628;1311;139767;-84
2022/10/29 21:20:02;;;;;;;27.60;13.00;;;;;;;14.06;100.00;100725.39;639545;1310;139363;-84
2022/10/29 21:35:06;;;;;;;27.50;12.90;;;;;;;13.95;100.00;100716.20;639832;1313;140230;-83
2022/10/29 21:52:13;;;;;;;24.90;12.20;;;;;;;13.82;100.00;100729.90;625416;1337;980198;-83
2022/10/29 22:07:16;;;;;;;22.40;10.30;;;;;;;13.63;100.00;100730.67;636061;1323;138695;-83
2022/10/29 22:22:19;;;;;;;74.10;35.60;;;;;;;13.45;100.00;100712.07;634359;1318;139295;-83
2022/10/29 22:37:22;;;;;;;16.70;9.00;;;;;;;13.44;100.00;100693.20;633319;1318;139328;-83
2022/10/29 22:52:25;;;;;;;16.90;8.80;;;;;;;13.34;100.00;100692.27;633033;1312;138921;-83
2022/10/29 23:07:28;;;;;;;17.30;8.50;;;;;;;13.20;100.00;100691.22;633962;1323;139024;-83
2022/10/29 23:22:37;;;;;;;12.80;7.90;;;;;;;13.19;100.00;100691.30;632054;1322;139518;-83
2022/10/29 23:37:40;;;;;;;18.70;8.10;;;;;;;13.22;100.00;100705.80;631707;1318;138825;-83
2022/10/29 23:52:43;;;;;;;15.40;7.80;;;;;;;13.01;100.00;100695.92;631792;1310;139525;-83
